createdAt,value
2022-09-12T00:00:45.962Z,1004.8
2022-09-12T00:02:02.238Z,1004.8
2022-09-12T00:03:18.544Z,1004.7
2022-09-12T00:04:34.850Z,1004.7
2022-09-12T00:05:51.126Z,1004.8
2022-09-12T00:07:06.423Z,1004.7
2022-09-12T00:08:22.721Z,1004.6
2022-09-12T00:09:39.050Z,1004.7
2022-09-12T00:10:55.298Z,1004.6
2022-09-12T00:12:11.601Z,1004.6
2022-09-12T00:13:27.891Z,1004.6
2022-09-12T00:14:44.211Z,1004.6
2022-09-12T00:16:00.000Z,1004.6
2022-09-12T00:17:16.804Z,1004.6
2022-09-12T00:18:33.070Z,1004.6
2022-09-12T00:19:49.345Z,1004.5
2022-09-12T00:21:05.636Z,1004.6
2022-09-12T00:22:21.960Z,1004.6
2022-09-12T00:23:37.249Z,1004.7
2022-09-12T00:24:53.558Z,1004.6
2022-09-12T00:26:09.837Z,1004.6
2022-09-12T00:27:26.115Z,1004.6
2022-09-12T00:28:42.435Z,1004.6
2022-09-12T00:29:58.747Z,1004.6
2022-09-12T00:31:15.008Z,1004.6
2022-09-12T00:32:31.284Z,1004.6
2022-09-12T00:33:47.578Z,1004.6
2022-09-12T00:35:03.904Z,1004.6
2022-09-12T00:36:20.194Z,1004.6
2022-09-12T00:37:36.483Z,1004.6
2022-09-12T00:38:52.765Z,1004.6
2022-09-12T00:40:08.080Z,1004.6
2022-09-12T00:41:24.349Z,1004.6
2022-09-12T00:42:40.659Z,1004.6
2022-09-12T00:43:56.966Z,1004.6
2022-09-12T00:45:13.252Z,1004.6
2022-09-12T00:46:29.517Z,1004.6
2022-09-12T00:47:45.839Z,1004.6
2022-09-12T00:49:02.113Z,1004.6
2022-09-12T00:50:18.402Z,1004.6
2022-09-12T00:51:34.692Z,1004.6
2022-09-12T00:52:51.020Z,1004.6
2022-09-12T00:54:07.281Z,1004.6
2022-09-12T00:55:23.604Z,1004.6
2022-09-12T00:56:38.882Z,1004.6
2022-09-12T00:57:55.193Z,1004.5
2022-09-12T00:59:11.489Z,1004.5
2022-09-12T01:00:27.758Z,1004.5
2022-09-12T01:01:44.052Z,1004.6
2022-09-12T01:03:00.366Z,1004.5
2022-09-12T01:04:16.632Z,1004.5
2022-09-12T01:05:32.921Z,1004.5
2022-09-12T01:06:49.218Z,1004.5
2022-09-12T01:08:05.514Z,1004.5
2022-09-12T01:09:21.802Z,1004.4
2022-09-12T01:10:38.085Z,1004.5
2022-09-12T01:11:54.385Z,1004.4
2022-09-12T01:13:09.716Z,1004.4
2022-09-12T01:14:26.015Z,1004.4
2022-09-12T01:15:42.277Z,1004.4
2022-09-12T01:16:58.575Z,1004.4
2022-09-12T01:18:14.870Z,1004.4
2022-09-12T01:19:31.156Z,1004.4
2022-09-12T01:20:47.473Z,1004.4
2022-09-12T01:22:03.732Z,1004.4
2022-09-12T01:23:20.053Z,1004.3
2022-09-12T01:24:36.335Z,1004.4
2022-09-12T01:25:52.611Z,1004.4
2022-09-12T01:27:08.915Z,1004.4
2022-09-12T01:28:25.202Z,1004.4
2022-09-12T01:29:40.505Z,1004.4
2022-09-12T01:30:56.801Z,1004.4
2022-09-12T01:32:13.105Z,1004.4
2022-09-12T01:33:29.379Z,1004.4
2022-09-12T01:34:45.671Z,1004.4
2022-09-12T01:36:01.978Z,1004.4
2022-09-12T01:37:18.255Z,1004.4
2022-09-12T01:38:34.583Z,1004.4
2022-09-12T01:39:50.846Z,1004.4
2022-09-12T01:41:07.163Z,1004.4
2022-09-12T01:42:23.436Z,1004.3
2022-09-12T01:43:39.747Z,1004.3
2022-09-12T01:44:56.023Z,1004.3
2022-09-12T01:46:11.355Z,1004.3
2022-09-12T01:47:27.629Z,1004.3
2022-09-12T01:48:43.938Z,1004.3
2022-09-12T01:50:00.198Z,1004.4
2022-09-12T01:51:16.516Z,1004.4
2022-09-12T01:52:32.786Z,1004.4
2022-09-12T01:53:48.143Z,1004.4
2022-09-12T01:55:04.397Z,1004.4
2022-09-12T01:56:20.720Z,1004.4
2022-09-12T01:57:36.979Z,1004.3
2022-09-12T01:58:53.293Z,1004.4
2022-09-12T02:00:09.593Z,1004.3
2022-09-12T02:01:25.882Z,1004.3
2022-09-12T02:02:42.152Z,1004.4
2022-09-12T02:03:58.434Z,1004.4
2022-09-12T02:05:14.733Z,1004.4
2022-09-12T02:06:31.028Z,1004.3
2022-09-12T02:07:47.324Z,1004.3
2022-09-12T02:09:03.633Z,1004.3
2022-09-12T02:10:18.919Z,1004.3
2022-09-12T02:11:35.204Z,1004.3
2022-09-12T02:12:51.508Z,1004.3
2022-09-12T02:14:07.827Z,1004.3
2022-09-12T02:15:24.090Z,1004.3
2022-09-12T02:16:40.381Z,1004.3
2022-09-12T02:17:56.684Z,1004.3
2022-09-12T02:19:13.002Z,1004.3
2022-09-12T02:20:29.264Z,1004.4
2022-09-12T02:21:45.574Z,1004.4
2022-09-12T02:23:01.839Z,1004.4
2022-09-12T02:24:18.143Z,1004.3
2022-09-12T02:25:34.422Z,1004.4
2022-09-12T02:26:49.737Z,1004.4
2022-09-12T02:28:06.035Z,1004.3
2022-09-12T02:29:22.331Z,1004.3
2022-09-12T02:30:38.610Z,1004.4
2022-09-12T02:31:54.904Z,1004.4
2022-09-12T02:33:11.211Z,1004.4
2022-09-12T02:34:27.516Z,1004.4
2022-09-12T02:35:43.794Z,1004.4
2022-09-12T02:37:00.108Z,1004.3
2022-09-12T02:38:16.369Z,1004.3
2022-09-12T02:39:32.668Z,1004.3
2022-09-12T02:40:48.967Z,1004.3
2022-09-12T02:42:05.240Z,1004.3
2022-09-12T02:43:20.559Z,1004.3
2022-09-12T02:44:36.878Z,1004.3
2022-09-12T02:45:53.171Z,1004.3
2022-09-12T02:47:09.457Z,1004.2
2022-09-12T02:48:25.718Z,1004.3
2022-09-12T02:49:42.017Z,1004.3
2022-09-12T02:50:58.313Z,1004.2
2022-09-12T02:52:14.626Z,1004.2
2022-09-12T02:53:30.892Z,1004.2
2022-09-12T02:54:47.213Z,1004.2
2022-09-12T02:56:03.474Z,1004.2
2022-09-12T02:57:19.798Z,1004.2
2022-09-12T02:58:36.065Z,1004.2
2022-09-12T02:59:51.365Z,1004.1
2022-09-12T03:01:07.661Z,1004.2
2022-09-12T03:02:23.981Z,1004.2
2022-09-12T03:03:40.257Z,1004.2
2022-09-12T03:04:56.569Z,1004.3
2022-09-12T03:06:12.840Z,1004.3
2022-09-12T03:07:29.157Z,1004.3
2022-09-12T03:08:45.420Z,1004.3
2022-09-12T03:10:01.736Z,1004.2
2022-09-12T03:11:18.014Z,1004.2
2022-09-12T03:12:34.305Z,1004.3
2022-09-12T03:13:50.590Z,1004.3
2022-09-12T03:15:06.916Z,1004.3
2022-09-12T03:16:22.184Z,1004.2
2022-09-12T03:17:38.489Z,1004.3
2022-09-12T03:18:54.773Z,1004.2
2022-09-12T03:20:11.099Z,1004.3
2022-09-12T03:21:27.353Z,1004.2
2022-09-12T03:22:43.678Z,1004.3
2022-09-12T03:23:59.966Z,1004.3
2022-09-12T03:25:16.263Z,1004.2
2022-09-12T03:26:32.560Z,1004.2
2022-09-12T03:27:48.832Z,1004.2
2022-09-12T03:29:05.124Z,1004.2
2022-09-12T03:30:21.442Z,1004.2
2022-09-12T03:31:37.697Z,1004.3
2022-09-12T03:32:53.005Z,1004.2
2022-09-12T03:34:09.313Z,1004.2
2022-09-12T03:35:25.631Z,1004.2
2022-09-12T03:36:41.883Z,1004.2
2022-09-12T03:37:58.203Z,1004.3
2022-09-12T03:39:14.468Z,1004.3
2022-09-12T03:40:30.771Z,1004.2
2022-09-12T03:41:47.063Z,1004.3
2022-09-12T03:43:03.377Z,1004.2
2022-09-12T03:44:19.647Z,1004.2
2022-09-12T03:45:35.966Z,1004.2
2022-09-12T03:46:52.264Z,1004.2
2022-09-12T03:48:08.542Z,1004.2
2022-09-12T03:49:23.840Z,1004.2
2022-09-12T03:50:40.154Z,1004.2
2022-09-12T03:51:56.408Z,1004.2
2022-09-12T03:53:12.729Z,1004.2
2022-09-12T03:54:28.991Z,1004.1
2022-09-12T03:55:45.288Z,1004.2
2022-09-12T03:57:01.000Z,1004.2
2022-09-12T03:58:17.905Z,1004.1
2022-09-12T03:59:34.165Z,1004.1
2022-09-12T04:00:50.483Z,1004.2
2022-09-12T04:02:06.781Z,1004.2
2022-09-12T04:03:23.055Z,1004.1
2022-09-12T04:04:39.334Z,1004.2
2022-09-12T04:05:54.648Z,1004.2
2022-09-12T04:07:10.948Z,1004.2
2022-09-12T04:08:27.269Z,1004.2
2022-09-12T04:09:43.566Z,1004.2
2022-09-12T04:10:59.822Z,1004.2
2022-09-12T04:12:16.085Z,1004.2
2022-09-12T04:13:32.389Z,1004.2
2022-09-12T04:14:48.614Z,1004.2
2022-09-12T04:16:04.918Z,1004.2
2022-09-12T04:17:21.180Z,1004.2
2022-09-12T04:18:37.483Z,1004.2
2022-09-12T04:19:53.771Z,1004.3
2022-09-12T04:21:10.055Z,1004.3
2022-09-12T04:22:25.278Z,1004.3
2022-09-12T04:23:41.520Z,1004.3
2022-09-12T04:24:57.777Z,1004.3
2022-09-12T04:26:14.020Z,1004.4
2022-09-12T04:27:30.235Z,1004.3
2022-09-12T04:28:46.465Z,1004.3
2022-09-12T04:30:02.718Z,1004.3
2022-09-12T04:31:18.947Z,1004.3
2022-09-12T04:32:35.191Z,1004.4
2022-09-12T04:33:51.456Z,1004.4
2022-09-12T04:35:07.666Z,1004.4
2022-09-12T04:36:23.938Z,1004.4
2022-09-12T04:37:40.153Z,1004.4
2022-09-12T04:38:55.399Z,1004.4
2022-09-12T04:40:11.639Z,1004.3
2022-09-12T04:41:27.878Z,1004.4
2022-09-12T04:42:44.113Z,1004.3
2022-09-12T04:44:00.367Z,1004.4
2022-09-12T04:45:16.599Z,1004.4
2022-09-12T04:46:32.833Z,1004.4
2022-09-12T04:47:49.071Z,1004.4
2022-09-12T04:49:05.309Z,1004.4
2022-09-12T04:50:21.554Z,1004.3
2022-09-12T04:51:37.790Z,1004.3
2022-09-12T04:52:54.034Z,1004.3
2022-09-12T04:54:10.267Z,1004.3
2022-09-12T04:55:25.516Z,1004.4
2022-09-12T04:56:41.765Z,1004.3
2022-09-12T04:57:58.003Z,1004.4
2022-09-12T04:59:14.246Z,1004.4
2022-09-12T05:00:30.470Z,1004.4
2022-09-12T05:01:46.708Z,1004.4
2022-09-12T05:03:02.955Z,1004.4
2022-09-12T05:04:19.195Z,1004.4
2022-09-12T05:05:35.434Z,1004.4
2022-09-12T05:06:51.662Z,1004.4
2022-09-12T05:08:07.915Z,1004.4
2022-09-12T05:09:24.141Z,1004.4
2022-09-12T05:10:40.394Z,1004.4
2022-09-12T05:11:55.636Z,1004.4
2022-09-12T05:13:11.889Z,1004.5
2022-09-12T05:14:28.126Z,1004.5
2022-09-12T05:15:44.356Z,1004.4
2022-09-12T05:17:00.589Z,1004.5
2022-09-12T05:18:16.835Z,1004.5
2022-09-12T05:19:33.067Z,1004.5
2022-09-12T05:20:49.308Z,1004.5
2022-09-12T05:22:05.550Z,1004.4
2022-09-12T05:23:21.797Z,1004.4
2022-09-12T05:24:38.026Z,1004.5
2022-09-12T05:25:54.266Z,1004.4
2022-09-12T05:27:10.505Z,1004.5
2022-09-12T05:28:25.754Z,1004.5
2022-09-12T05:29:41.996Z,1004.5
2022-09-12T05:30:58.245Z,1004.5
2022-09-12T05:32:14.482Z,1004.5
2022-09-12T05:33:30.706Z,1004.5
2022-09-12T05:34:46.957Z,1004.6
2022-09-12T05:36:03.191Z,1004.5
2022-09-12T05:37:19.425Z,1004.5
2022-09-12T05:38:35.666Z,1004.6
2022-09-12T05:39:51.906Z,1004.6
2022-09-12T05:41:08.151Z,1004.6
2022-09-12T05:42:24.383Z,1004.6
2022-09-12T05:43:40.629Z,1004.6
2022-09-12T05:44:55.874Z,1004.7
2022-09-12T05:46:12.115Z,1004.7
2022-09-12T05:47:28.354Z,1004.7
2022-09-12T05:48:44.590Z,1004.7
2022-09-12T05:50:00.832Z,1004.7
2022-09-12T05:51:17.068Z,1004.7
2022-09-12T05:52:33.314Z,1004.7
2022-09-12T05:53:49.540Z,1004.7
2022-09-12T05:55:05.800Z,1004.7
2022-09-12T05:56:22.020Z,1004.7
2022-09-12T05:57:38.265Z,1004.7
2022-09-12T05:58:54.495Z,1004.7
2022-09-12T06:00:10.740Z,1004.7
2022-09-12T06:02:42.230Z,1004.7
2022-09-12T06:03:58.475Z,1004.7
2022-09-12T06:05:14.723Z,1004.7
2022-09-12T06:06:30.963Z,1004.7
2022-09-12T06:07:47.203Z,1004.7
2022-09-12T06:09:02.457Z,1004.7
2022-09-12T06:10:18.689Z,1004.7
2022-09-12T06:11:34.925Z,1004.8
2022-09-12T06:12:51.160Z,1004.8
2022-09-12T06:14:07.411Z,1004.8
2022-09-12T06:15:23.637Z,1004.8
2022-09-12T06:16:39.875Z,1004.8
2022-09-12T06:17:56.120Z,1004.8
2022-09-12T06:19:12.369Z,1004.8
2022-09-12T06:20:28.596Z,1004.9
2022-09-12T06:21:44.848Z,1004.9
2022-09-12T06:23:01.069Z,1004.8
2022-09-12T06:24:17.307Z,1004.9
2022-09-12T06:25:32.569Z,1004.9
2022-09-12T06:26:48.802Z,1004.9
2022-09-12T06:28:05.045Z,1004.9
2022-09-12T06:29:21.293Z,1004.9
2022-09-12T06:30:37.526Z,1004.9
2022-09-12T06:31:53.768Z,1004.8
2022-09-12T06:33:10.010Z,1004.8
2022-09-12T06:34:26.233Z,1004.8
2022-09-12T06:35:42.480Z,1004.8
2022-09-12T06:36:58.710Z,1004.8
2022-09-12T06:38:14.956Z,1004.8
2022-09-12T06:39:31.193Z,1004.8
2022-09-12T06:40:47.431Z,1004.8
2022-09-12T06:42:02.683Z,1004.8
2022-09-12T06:43:18.920Z,1004.7
2022-09-12T06:44:35.172Z,1004.8
2022-09-12T06:45:51.397Z,1004.8
2022-09-12T06:47:07.643Z,1004.7
2022-09-12T06:48:23.875Z,1004.8
2022-09-12T06:49:40.120Z,1004.7
2022-09-12T06:50:56.353Z,1004.7
2022-09-12T06:52:12.601Z,1004.7
2022-09-12T06:53:28.829Z,1004.7
2022-09-12T06:54:45.079Z,1004.7
2022-09-12T06:56:01.309Z,1004.8
2022-09-12T06:57:17.549Z,1004.8
2022-09-12T06:58:32.807Z,1004.7
2022-09-12T06:59:49.032Z,1004.8
2022-09-12T07:01:05.272Z,1004.8
2022-09-12T07:02:21.524Z,1004.8
2022-09-12T07:03:37.760Z,1004.7
2022-09-12T07:04:53.993Z,1004.7
2022-09-12T07:06:10.231Z,1004.8
2022-09-12T07:07:26.468Z,1004.8
2022-09-12T07:08:42.705Z,1004.8
2022-09-12T07:09:58.946Z,1004.8
2022-09-12T07:11:15.177Z,1004.8
2022-09-12T07:12:31.415Z,1004.8
2022-09-12T07:13:47.655Z,1004.8
2022-09-12T07:15:02.924Z,1004.8
2022-09-12T07:16:19.152Z,1004.8
2022-09-12T07:17:35.399Z,1004.8
2022-09-12T07:18:51.625Z,1004.8
2022-09-12T07:20:07.865Z,1004.8
2022-09-12T07:21:24.114Z,1004.8
2022-09-12T07:22:40.348Z,1004.8
2022-09-12T07:23:56.585Z,1004.9
2022-09-12T07:25:12.833Z,1004.8
2022-09-12T07:26:29.070Z,1004.9
2022-09-12T07:27:45.295Z,1004.8
2022-09-12T07:29:01.546Z,1004.9
2022-09-12T07:30:17.781Z,1004.9
2022-09-12T07:31:33.033Z,1004.9
2022-09-12T07:32:49.278Z,1004.9
2022-09-12T07:34:05.507Z,1004.9
2022-09-12T07:35:21.740Z,1004.9
2022-09-12T07:36:37.991Z,1004.9
2022-09-12T07:37:54.219Z,1004.9
2022-09-12T07:39:10.460Z,1004.9
2022-09-12T07:40:26.714Z,1004.9
2022-09-12T07:41:42.938Z,1004.9
2022-09-12T07:42:59.177Z,1004.9
2022-09-12T07:44:15.411Z,1004.9
2022-09-12T07:45:31.666Z,1004.9
2022-09-12T07:46:47.901Z,1004.9
2022-09-12T07:48:03.140Z,1004.9
2022-09-12T07:49:19.391Z,1004.9
2022-09-12T07:50:35.618Z,1004.9
2022-09-12T07:51:51.862Z,1004.9
2022-09-12T07:53:08.110Z,1004.9
2022-09-12T07:54:24.337Z,1004.9
2022-09-12T07:55:40.578Z,1004.9
2022-09-12T07:56:56.815Z,1004.9
2022-09-12T07:58:13.059Z,1004.9
2022-09-12T07:59:29.290Z,1004.9
2022-09-12T08:00:45.546Z,1004.9
2022-09-12T08:02:01.766Z,1004.9
2022-09-12T08:03:18.012Z,1004.9
2022-09-12T08:04:33.273Z,1004.9
2022-09-12T08:05:49.502Z,1004.9
2022-09-12T08:07:05.746Z,1004.9
2022-09-12T08:08:21.983Z,1004.9
2022-09-12T08:09:38.213Z,1004.9
2022-09-12T08:10:54.471Z,1004.9
2022-09-12T08:12:10.709Z,1004.9
2022-09-12T08:13:26.932Z,1004.9
2022-09-12T08:14:43.178Z,1004.9
2022-09-12T08:15:59.417Z,1004.9
2022-09-12T08:17:15.653Z,1004.9
2022-09-12T08:18:31.894Z,1004.9
2022-09-12T08:19:48.140Z,1004.8
2022-09-12T08:21:03.386Z,1004.9
2022-09-12T08:22:19.620Z,1004.9
2022-09-12T08:23:35.856Z,1004.8
2022-09-12T08:24:52.109Z,1004.9
2022-09-12T08:26:08.333Z,1004.8
2022-09-12T08:27:24.578Z,1004.8
2022-09-12T08:28:40.810Z,1004.8
2022-09-12T08:29:57.058Z,1004.9
2022-09-12T08:31:13.288Z,1004.9
2022-09-12T08:32:29.538Z,1004.9
2022-09-12T08:33:45.775Z,1004.9
2022-09-12T08:35:02.008Z,1004.8
2022-09-12T08:36:18.245Z,1004.9
2022-09-12T08:37:33.505Z,1004.9
2022-09-12T08:38:49.746Z,1004.9
2022-09-12T08:40:05.976Z,1004.8
2022-09-12T08:41:22.215Z,1004.9
2022-09-12T08:42:38.454Z,1004.9
2022-09-12T08:43:54.707Z,1004.8
2022-09-12T08:45:10.950Z,1004.8
2022-09-12T08:46:27.178Z,1004.8
2022-09-12T08:47:43.411Z,1004.8
2022-09-12T08:48:59.656Z,1004.8
2022-09-12T08:50:15.885Z,1004.8
2022-09-12T08:51:32.129Z,1004.8
2022-09-12T08:52:48.380Z,1004.9
2022-09-12T08:54:03.618Z,1004.9
2022-09-12T08:55:19.857Z,1004.9
2022-09-12T08:56:36.099Z,1004.9
2022-09-12T08:57:52.335Z,1004.8
2022-09-12T08:59:08.579Z,1004.8
2022-09-12T09:00:24.814Z,1004.8
2022-09-12T09:01:41.068Z,1004.8
2022-09-12T09:02:57.293Z,1004.9
2022-09-12T09:04:13.530Z,1004.9
2022-09-12T09:05:29.774Z,1004.8
2022-09-12T09:06:46.009Z,1004.8
2022-09-12T09:08:02.250Z,1004.8
2022-09-12T09:09:18.500Z,1004.8
2022-09-12T09:10:33.741Z,1004.8
2022-09-12T09:11:49.997Z,1004.8
2022-09-12T09:13:06.234Z,1004.8
2022-09-12T09:14:22.472Z,1004.8
2022-09-12T09:15:38.697Z,1004.8
2022-09-12T09:16:54.935Z,1004.8
2022-09-12T09:18:11.193Z,1004.8
2022-09-12T09:19:27.431Z,1004.8
2022-09-12T09:20:43.651Z,1004.8
2022-09-12T09:21:59.896Z,1004.8
2022-09-12T09:23:16.138Z,1004.8
2022-09-12T09:24:32.380Z,1004.8
2022-09-12T09:25:48.621Z,1004.8
2022-09-12T09:27:03.872Z,1004.7
2022-09-12T09:28:20.106Z,1004.7
2022-09-12T09:29:36.357Z,1004.7
2022-09-12T09:30:52.585Z,1004.7
2022-09-12T09:32:08.828Z,1004.7
2022-09-12T09:33:25.059Z,1004.6
2022-09-12T09:34:41.299Z,1004.7
2022-09-12T09:35:57.541Z,1004.6
2022-09-12T09:37:13.782Z,1004.7
2022-09-12T09:38:30.024Z,1004.6
2022-09-12T09:39:46.270Z,1004.7
2022-09-12T09:41:02.499Z,1004.6
2022-09-12T09:42:18.744Z,1004.7
2022-09-12T09:43:33.997Z,1004.6
2022-09-12T09:44:50.242Z,1004.7
2022-09-12T09:46:06.481Z,1004.7
2022-09-12T09:47:22.708Z,1004.7
2022-09-12T09:48:38.959Z,1004.6
2022-09-12T09:49:55.196Z,1004.6
2022-09-12T09:51:11.440Z,1004.6
2022-09-12T09:52:27.662Z,1004.6
2022-09-12T09:53:43.907Z,1004.5
2022-09-12T09:55:00.145Z,1004.5
2022-09-12T09:56:16.382Z,1004.5
2022-09-12T09:57:32.629Z,1004.5
2022-09-12T09:58:48.866Z,1004.4
2022-09-12T10:00:04.126Z,1004.5
2022-09-12T10:01:20.355Z,1004.4
2022-09-12T10:02:36.595Z,1004.4
2022-09-12T10:03:52.837Z,1004.4
2022-09-12T10:05:09.071Z,1004.3
2022-09-12T10:06:25.324Z,1004.3
2022-09-12T10:07:41.555Z,1004.3
2022-09-12T10:08:57.795Z,1004.3
2022-09-12T10:10:14.034Z,1004.3
2022-09-12T10:11:30.274Z,1004.3
2022-09-12T10:12:46.530Z,1004.3
2022-09-12T10:14:02.757Z,1004.3
2022-09-12T10:15:18.991Z,1004.3
2022-09-12T10:16:34.251Z,1004.3
2022-09-12T10:17:50.494Z,1004.3
2022-09-12T10:19:06.733Z,1004.3
2022-09-12T10:20:22.976Z,1004.3
2022-09-12T10:21:39.219Z,1004.3
2022-09-12T10:22:55.457Z,1004.3
2022-09-12T10:24:10.716Z,1004.3
2022-09-12T10:25:26.951Z,1004.3
2022-09-12T10:26:43.187Z,1004.3
2022-09-12T10:27:59.444Z,1004.3
2022-09-12T10:29:15.666Z,1004.3
2022-09-12T10:30:31.920Z,1004.3
2022-09-12T10:31:48.149Z,1004.3
2022-09-12T10:33:04.389Z,1004.3
2022-09-12T10:34:20.640Z,1004.3
2022-09-12T10:35:36.871Z,1004.3
2022-09-12T10:36:53.115Z,1004.3
2022-09-12T10:38:09.358Z,1004.3
2022-09-12T10:39:25.591Z,1004.3
2022-09-12T10:40:40.859Z,1004.3
2022-09-12T10:41:57.085Z,1004.3
2022-09-12T10:43:13.321Z,1004.3
2022-09-12T10:44:29.559Z,1004.3
2022-09-12T10:45:45.810Z,1004.3
2022-09-12T10:47:02.039Z,1004.3
2022-09-12T10:48:18.276Z,1004.3
2022-09-12T10:49:34.528Z,1004.2
2022-09-12T10:50:50.763Z,1004.3
2022-09-12T10:52:07.005Z,1004.3
2022-09-12T10:53:23.235Z,1004.3
2022-09-12T10:54:39.478Z,1004.3
2022-09-12T10:55:55.711Z,1004.2
2022-09-12T10:57:10.968Z,1004.2
2022-09-12T10:58:27.212Z,1004.2
2022-09-12T10:59:43.457Z,1004.1
2022-09-12T11:00:59.688Z,1004.2
2022-09-12T11:02:15.928Z,1004.2
2022-09-12T11:03:32.159Z,1004.2
2022-09-12T11:04:48.416Z,1004.2
2022-09-12T11:06:04.643Z,1004.2
2022-09-12T11:07:20.883Z,1004.1
2022-09-12T11:08:37.113Z,1004.1
2022-09-12T11:09:53.360Z,1004.1
2022-09-12T11:11:09.596Z,1004.1
2022-09-12T11:12:25.836Z,1004.1
2022-09-12T11:13:41.097Z,1004.1
2022-09-12T11:14:57.332Z,1004.1
2022-09-12T11:16:13.575Z,1004
2022-09-12T11:17:29.813Z,1004
2022-09-12T11:18:46.058Z,1004
2022-09-12T11:20:02.286Z,1004
2022-09-12T11:21:18.533Z,1004
2022-09-12T11:22:34.773Z,1004
2022-09-12T11:23:51.012Z,1004
2022-09-12T11:25:07.245Z,1004
2022-09-12T11:26:23.485Z,1004
2022-09-12T11:27:39.722Z,1003.9
2022-09-12T11:28:55.958Z,1003.9
2022-09-12T11:30:11.212Z,1003.9
2022-09-12T11:31:27.450Z,1003.9
2022-09-12T11:32:43.704Z,1003.8
2022-09-12T11:33:59.926Z,1003.9
2022-09-12T11:35:16.163Z,1003.9
2022-09-12T11:36:32.415Z,1003.9
2022-09-12T11:37:48.646Z,1003.9
2022-09-12T11:39:04.887Z,1003.9
2022-09-12T11:40:21.117Z,1003.9
2022-09-12T11:41:37.360Z,1003.9
2022-09-12T11:42:53.605Z,1003.9
2022-09-12T11:44:09.843Z,1003.9
2022-09-12T11:45:26.092Z,1003.9
2022-09-12T11:46:41.326Z,1003.9
2022-09-12T11:47:57.571Z,1003.9
2022-09-12T11:49:13.806Z,1003.9
2022-09-12T11:50:30.047Z,1003.9
2022-09-12T11:51:46.304Z,1003.8
2022-09-12T11:53:02.526Z,1003.8
2022-09-12T11:54:18.766Z,1003.9
2022-09-12T11:55:35.019Z,1003.9
2022-09-12T11:56:51.000Z,1003.9
2022-09-12T11:58:07.483Z,1003.9
2022-09-12T12:00:39.978Z,1003.8
2022-09-12T12:01:56.202Z,1003.8
2022-09-12T12:03:11.452Z,1003.8
2022-09-12T12:04:27.709Z,1003.8
2022-09-12T12:05:43.934Z,1003.8
2022-09-12T12:07:00.186Z,1003.8
2022-09-12T12:08:16.416Z,1003.8
2022-09-12T12:09:32.648Z,1003.8
2022-09-12T12:10:48.895Z,1003.8
2022-09-12T12:12:05.142Z,1003.7
2022-09-12T12:13:21.366Z,1003.7
2022-09-12T12:14:37.620Z,1003.7
2022-09-12T12:15:53.855Z,1003.7
2022-09-12T12:17:10.079Z,1003.7
2022-09-12T12:18:26.317Z,1003.7
2022-09-12T12:19:41.584Z,1003.7
2022-09-12T12:20:57.821Z,1003.7
2022-09-12T12:22:14.062Z,1003.7
2022-09-12T12:23:30.289Z,1003.6
2022-09-12T12:24:46.539Z,1003.6
2022-09-12T12:26:02.762Z,1003.6
2022-09-12T12:27:19.002Z,1003.6
2022-09-12T12:28:35.250Z,1003.6
2022-09-12T12:29:51.491Z,1003.6
2022-09-12T12:31:07.724Z,1003.5
2022-09-12T12:32:23.953Z,1003.5
2022-09-12T12:33:40.195Z,1003.6
2022-09-12T12:34:56.442Z,1003.5
2022-09-12T12:36:11.685Z,1003.5
2022-09-12T12:37:27.935Z,1003.5
2022-09-12T12:38:44.168Z,1003.5
2022-09-12T12:40:00.408Z,1003.5
2022-09-12T12:41:16.644Z,1003.5
2022-09-12T12:42:32.894Z,1003.5
2022-09-12T12:43:49.123Z,1003.5
2022-09-12T12:45:05.368Z,1003.4
2022-09-12T12:46:21.597Z,1003.4
2022-09-12T12:47:37.840Z,1003.5
2022-09-12T12:48:54.067Z,1003.4
2022-09-12T12:50:10.321Z,1003.4
2022-09-12T12:51:26.552Z,1003.4
2022-09-12T12:52:41.802Z,1003.4
2022-09-12T12:53:58.051Z,1003.4
2022-09-12T12:55:14.293Z,1003.3
2022-09-12T12:56:30.520Z,1003.3
2022-09-12T12:57:46.768Z,1003.3
2022-09-12T12:59:03.000Z,1003.3
2022-09-12T13:00:19.237Z,1003.3
2022-09-12T13:01:35.464Z,1003.3
2022-09-12T13:02:51.704Z,1003.3
2022-09-12T13:04:07.942Z,1003.3
2022-09-12T13:05:24.181Z,1003.3
2022-09-12T13:06:40.419Z,1003.3
2022-09-12T13:07:56.666Z,1003.3
2022-09-12T13:09:11.914Z,1003.3
2022-09-12T13:10:28.163Z,1003.3
2022-09-12T13:11:44.391Z,1003.3
2022-09-12T13:13:00.628Z,1003.2
2022-09-12T13:14:16.876Z,1003.2
2022-09-12T13:15:33.105Z,1003.2
2022-09-12T13:16:49.350Z,1003.2
2022-09-12T13:18:05.581Z,1003.2
2022-09-12T13:19:21.817Z,1003.2
2022-09-12T13:20:38.063Z,1003.1
2022-09-12T13:21:54.308Z,1003.2
2022-09-12T13:23:10.544Z,1003.1
2022-09-12T13:24:26.782Z,1003.1
2022-09-12T13:25:42.029Z,1003.1
2022-09-12T13:26:58.272Z,1003.1
2022-09-12T13:28:14.518Z,1003.1
2022-09-12T13:29:30.743Z,1003.1
2022-09-12T13:30:46.978Z,1003.1
2022-09-12T13:32:03.224Z,1003
2022-09-12T13:33:19.468Z,1003
2022-09-12T13:34:35.705Z,1003
2022-09-12T13:35:51.931Z,1003
2022-09-12T13:37:08.181Z,1002.9
2022-09-12T13:38:24.419Z,1002.9
2022-09-12T13:39:40.653Z,1002.9
2022-09-12T13:40:56.896Z,1002.9
2022-09-12T13:42:12.147Z,1002.9
2022-09-12T13:43:28.389Z,1002.9
2022-09-12T13:44:44.615Z,1002.8
2022-09-12T13:47:17.105Z,1002.8
2022-09-12T13:48:33.339Z,1002.8
2022-09-12T13:49:49.580Z,1002.8
2022-09-12T13:51:05.824Z,1002.7
2022-09-12T13:52:22.052Z,1002.8
2022-09-12T13:54:54.521Z,1002.7
2022-09-12T13:56:10.767Z,1002.7
2022-09-12T13:57:27.001Z,1002.8
2022-09-12T13:58:42.260Z,1002.8
2022-09-12T13:59:58.494Z,1002.8
2022-09-12T14:01:14.743Z,1002.8
2022-09-12T14:02:30.969Z,1002.8
2022-09-12T14:03:47.204Z,1002.8
2022-09-12T14:05:03.456Z,1002.8
2022-09-12T14:06:19.695Z,1002.8
2022-09-12T14:07:35.927Z,1002.8
2022-09-12T14:08:52.166Z,1002.8
2022-09-12T14:10:08.407Z,1002.8
2022-09-12T14:11:24.638Z,1002.8
2022-09-12T14:12:40.876Z,1002.7
2022-09-12T14:13:57.120Z,1002.7
2022-09-12T14:15:12.369Z,1002.8
2022-09-12T14:16:28.598Z,1002.7
2022-09-12T14:17:44.851Z,1002.8
2022-09-12T14:19:01.078Z,1002.7
2022-09-12T14:20:17.316Z,1002.7
2022-09-12T14:21:33.553Z,1002.7
2022-09-12T14:22:49.796Z,1002.6
2022-09-12T14:24:06.046Z,1002.7
2022-09-12T14:25:22.267Z,1002.7
2022-09-12T14:26:38.515Z,1002.7
2022-09-12T14:29:10.982Z,1002.6
2022-09-12T14:30:27.231Z,1002.6
2022-09-12T14:31:42.487Z,1002.5
2022-09-12T14:32:58.721Z,1002.5
2022-09-12T14:34:14.967Z,1002.5
2022-09-12T14:35:31.187Z,1002.5
2022-09-12T14:36:47.430Z,1002.5
2022-09-12T14:38:03.675Z,1002.5
2022-09-12T14:39:18.943Z,1002.5
2022-09-12T14:40:35.161Z,1002.5
2022-09-12T14:41:51.400Z,1002.5
2022-09-12T14:43:07.643Z,1002.5
2022-09-12T14:44:23.880Z,1002.5
2022-09-12T14:45:40.121Z,1002.5
2022-09-12T14:46:56.365Z,1002.5
2022-09-12T14:48:12.596Z,1002.5
2022-09-12T14:49:28.841Z,1002.5
2022-09-12T14:50:45.075Z,1002.5
2022-09-12T14:52:01.312Z,1002.5
2022-09-12T14:53:17.565Z,1002.4
2022-09-12T14:54:33.804Z,1002.4
2022-09-12T14:55:50.033Z,1002.4
2022-09-12T14:57:05.290Z,1002.4
2022-09-12T14:58:21.523Z,1002.4
2022-09-12T14:59:37.755Z,1002.4
2022-09-12T15:00:54.005Z,1002.4
2022-09-12T15:02:10.249Z,1002.4
2022-09-12T15:03:26.473Z,1002.4
2022-09-12T15:04:42.715Z,1002.4
2022-09-12T15:05:58.962Z,1002.4
2022-09-12T15:07:15.191Z,1002.4
2022-09-12T15:08:31.437Z,1002.4
2022-09-12T15:09:47.685Z,1002.4
2022-09-12T15:11:03.914Z,1002.4
2022-09-12T15:12:20.148Z,1002.4
2022-09-12T15:13:35.405Z,1002.4
2022-09-12T15:14:51.651Z,1002.4
2022-09-12T15:16:07.888Z,1002.4
2022-09-12T15:17:24.119Z,1002.3
2022-09-12T15:18:40.362Z,1002.4
2022-09-12T15:19:56.605Z,1002.3
2022-09-12T15:21:12.849Z,1002.4
2022-09-12T15:22:29.092Z,1002.3
2022-09-12T15:23:45.322Z,1002.3
2022-09-12T15:25:01.559Z,1002.3
2022-09-12T15:26:17.791Z,1002.3
2022-09-12T15:27:34.047Z,1002.3
2022-09-12T15:28:50.277Z,1002.3
2022-09-12T15:30:05.529Z,1002.3
2022-09-12T15:31:21.761Z,1002.3
2022-09-12T15:32:38.013Z,1002.4
2022-09-12T15:33:54.244Z,1002.3
2022-09-12T15:35:10.492Z,1002.4
2022-09-12T15:36:26.741Z,1002.4
2022-09-12T15:37:42.968Z,1002.4
2022-09-12T15:38:59.211Z,1002.4
2022-09-12T15:40:15.448Z,1002.3
2022-09-12T15:41:31.681Z,1002.4
2022-09-12T15:42:47.912Z,1002.3
2022-09-12T15:44:04.158Z,1002.4
2022-09-12T15:45:20.396Z,1002.4
2022-09-12T15:46:35.656Z,1002.4
2022-09-12T15:47:51.902Z,1002.4
2022-09-12T15:49:08.122Z,1002.3
2022-09-12T15:50:24.368Z,1002.4
2022-09-12T15:51:40.609Z,1002.3
2022-09-12T15:52:56.852Z,1002.4
2022-09-12T15:54:13.084Z,1002.3
2022-09-12T15:55:29.325Z,1002.3
2022-09-12T15:56:45.574Z,1002.3
2022-09-12T15:58:01.813Z,1002.3